Terminal Aerodrome Forecast
Issued by NWS

Home | Current Version | Previous Version | Text Only | Print | Product List | Glossary On
Versions: 1 2 3 4 5 6 7 8 9 10 11 12 13 14 15 16 17 18
620
FTUS43 KDTX 110857 AAB
TAFMBS
TAF AMD
KMBS 110857Z 1109/1206 15005KT 1 1/2SM -SN SCT015 OVC022
     FM111300 14008KT 2SM -SN OVC015
     FM111700 15010KT 3/4SM -SN OVC010
     FM120100 18008KT 2SM -SN OVC009=

USA.gov is the U.S. government's official web portal to all federal, state and local government web resources and services.